Time,TemperatureF,DewpointF,PressureIn,WindDirection,WindDirectionDegrees,WindSpeedMPH,WindSpeedGustMPH,Humidity,HourlyPrecipIn,Conditions,Clouds,dailyrainin,SoftwareType,DateUTC
2013-07-07 00:01:00,71.0,68.0,30.03,SSW,195,1.0,2.0,89,0.00,,,0.34,,2013-07-07 04:01:00,
2013-07-07 02:11:00,68.0,67.0,30.07,SSW,193,2.0,5.0,95,0.00,,,0.34,,2013-07-07 06:11:00,
2013-07-07 02:21:00,68.0,67.0,30.07,SSW,193,2.0,5.0,95,0.00,,,0.34,,2013-07-07 06:21:00,
2013-07-07 02:32:00,68.0,67.0,30.06,SW,216,2.0,4.0,95,0.00,,,0.34,,2013-07-07 06:32:00,
2013-07-07 02:43:00,68.0,67.0,30.05,SSW,205,1.0,3.0,95,0.00,,,0.34,,2013-07-07 06:43:00,
2013-07-07 02:52:00,67.0,66.0,30.05,SW,235,1.0,4.0,95,0.00,,,0.34,,2013-07-07 06:52:00,
2013-07-07 03:02:00,67.0,66.0,30.05,South,175,1.0,3.0,95,0.00,,,0.34,,2013-07-07 07:02:00,
2013-07-07 03:11:00,67.0,66.0,30.04,SSW,204,1.0,4.0,95,0.00,,,0.34,,2013-07-07 07:11:00,
2013-07-07 03:22:00,67.0,66.0,30.04,South,188,0.0,4.0,96,0.00,,,0.34,,2013-07-07 07:22:00,
2013-07-07 03:33:00,67.0,66.0,30.04,SSW,201,1.0,3.0,96,0.00,,,0.34,,2013-07-07 07:33:00,
2013-07-07 03:44:00,67.0,66.0,30.04,SSW,195,2.0,4.0,96,0.00,,,0.34,,2013-07-07 07:44:00,
2013-07-07 03:53:00,67.0,66.0,30.04,SE,145,2.0,4.0,96,0.00,,,0.34,,2013-07-07 07:53:00,
2013-07-07 04:02:00,67.0,66.0,30.04,SSE,165,1.0,4.0,96,0.00,,,0.34,,2013-07-07 08:02:00,
2013-07-07 04:12:00,67.0,66.0,30.04,SSE,167,1.0,3.0,96,0.00,,,0.34,,2013-07-07 08:12:00,
2013-07-07 04:22:00,67.0,66.0,30.03,SSW,205,1.0,4.0,96,0.00,,,0.34,,2013-07-07 08:22:00,
2013-07-07 04:34:00,66.0,65.0,30.03,SSE,150,1.0,2.0,96,0.00,,,0.34,,2013-07-07 08:34:00,
2013-07-07 04:44:00,66.0,65.0,30.03,SSE,159,1.0,4.0,96,0.00,,,0.34,,2013-07-07 08:44:00,
2013-07-07 04:53:00,66.0,65.0,30.03,SSW,198,1.0,3.0,97,0.00,,,0.34,,2013-07-07 08:53:00,
2013-07-07 05:02:00,66.0,65.0,30.03,South,190,0.0,2.0,97,0.00,,,0.34,,2013-07-07 09:02:00,
2013-07-07 05:12:00,65.0,64.0,30.04,SSW,203,1.0,2.0,97,0.00,,,0.34,,2013-07-07 09:12:00,
2013-07-07 05:22:00,65.0,64.0,30.03,SSW,194,1.0,3.0,97,0.00,,,0.34,,2013-07-07 09:22:00,
2013-07-07 05:34:00,65.0,64.0,30.04,SSW,211,0.0,1.0,97,0.00,,,0.34,,2013-07-07 09:34:00,
2013-07-07 05:43:00,65.0,64.0,30.04,WSW,238,0.0,2.0,98,0.00,,,0.34,,2013-07-07 09:43:00,
2013-07-07 05:53:00,65.0,64.0,30.04,SW,215,1.0,2.0,98,0.00,,,0.34,,2013-07-07 09:53:00,
2013-07-07 06:03:00,65.0,64.0,30.05,SW,231,0.0,1.0,98,0.00,,,0.34,,2013-07-07 10:03:00,
2013-07-07 06:12:00,65.0,64.0,30.05,SW,228,1.0,1.0,98,0.00,,,0.34,,2013-07-07 10:12:00,
2013-07-07 06:22:00,65.0,64.0,30.05,SSW,204,0.0,2.0,98,0.00,,,0.34,,2013-07-07 10:22:00,
2013-07-07 06:32:00,65.0,64.0,30.05,SSW,201,0.0,2.0,98,0.00,,,0.34,,2013-07-07 10:32:00,
2013-07-07 06:43:00,65.0,64.0,30.06,SW,226,1.0,2.0,98,0.00,,,0.34,,2013-07-07 10:43:00,
2013-07-07 06:52:00,65.0,64.0,30.06,South,176,0.0,2.0,98,0.00,,,0.34,,2013-07-07 10:52:00,
2013-07-07 07:02:00,65.0,64.0,30.06,SSW,201,2.0,3.0,98,0.00,,,0.34,,2013-07-07 11:02:00,
2013-07-07 07:11:00,65.0,64.0,30.06,SSE,165,1.0,3.0,98,0.00,,,0.34,,2013-07-07 11:11:00,
2013-07-07 07:23:00,65.0,64.0,30.06,SW,225,2.0,4.0,98,0.00,,,0.34,,2013-07-07 11:23:00,
2013-07-07 07:34:00,65.0,64.0,30.06,SW,226,2.0,4.0,98,0.00,,,0.34,,2013-07-07 11:34:00,
2013-07-07 07:43:00,66.0,65.0,30.07,South,181,2.0,4.0,98,0.00,,,0.34,,2013-07-07 11:43:00,
2013-07-07 07:53:00,66.0,65.0,30.07,SSW,203,2.0,4.0,98,0.00,,,0.34,,2013-07-07 11:53:00,
2013-07-07 08:02:00,66.0,65.0,30.07,SW,225,1.0,3.0,98,0.00,,,0.34,,2013-07-07 12:02:00,
2013-07-07 08:12:00,66.0,65.0,30.07,SSW,193,1.0,4.0,98,0.00,,,0.34,,2013-07-07 12:12:00,
2013-07-07 08:22:00,67.0,66.0,30.07,SW,218,2.0,5.0,98,0.00,,,0.34,,2013-07-07 12:22:00,
2013-07-07 08:34:00,67.0,66.0,30.08,SW,226,3.0,4.0,98,0.00,,,0.34,,2013-07-07 12:34:00,
2013-07-07 08:43:00,67.0,66.0,30.08,SW,215,2.0,6.0,98,0.00,,,0.34,,2013-07-07 12:43:00,
2013-07-07 08:52:00,68.0,67.0,30.08,SW,222,2.0,5.0,97,0.00,,,0.34,,2013-07-07 12:52:00,
2013-07-07 09:02:00,68.0,67.0,30.08,SW,236,3.0,5.0,97,0.00,,,0.34,,2013-07-07 13:02:00,
2013-07-07 09:12:00,68.0,67.0,30.08,WNW,284,3.0,6.0,97,0.00,,,0.34,,2013-07-07 13:12:00,
2013-07-07 09:22:00,69.0,68.0,30.08,West,264,2.0,4.0,96,0.00,,,0.34,,2013-07-07 13:22:00,
2013-07-07 09:34:00,69.0,68.0,30.09,SW,218,1.0,5.0,96,0.00,,,0.34,,2013-07-07 13:34:00,
2013-07-07 09:43:00,69.0,68.0,30.09,SW,219,2.0,5.0,95,0.00,,,0.34,,2013-07-07 13:43:00,
2013-07-07 09:52:00,69.0,67.0,30.09,WSW,255,3.0,6.0,93,0.00,,,0.34,,2013-07-07 13:52:00,
2013-07-07 10:02:00,69.0,67.0,30.09,SW,226,3.0,8.0,92,0.00,,,0.34,,2013-07-07 14:02:00,
2013-07-07 10:12:00,70.0,68.0,30.09,SW,218,3.0,7.0,92,0.00,,,0.34,,2013-07-07 14:12:00,
2013-07-07 10:22:00,70.0,67.0,30.09,WSW,244,4.0,7.0,91,0.00,,,0.34,,2013-07-07 14:22:00,
2013-07-07 10:34:00,70.0,67.0,30.09,WSW,242,4.0,8.0,91,0.00,,,0.16,,2013-07-07 14:34:00,
2013-07-07 10:43:00,70.0,67.0,30.09,SSW,211,4.0,10.0,90,0.00,,,0.16,,2013-07-07 14:43:00,
2013-07-07 10:53:00,71.0,68.0,30.09,SW,231,2.0,5.0,90,0.00,,,0.16,,2013-07-07 14:53:00,
2013-07-07 11:02:00,71.0,67.0,30.09,WSW,256,4.0,8.0,88,0.00,,,0.16,,2013-07-07 15:02:00,
2013-07-07 11:11:00,71.0,67.0,30.09,WSW,248,2.0,7.0,88,0.00,,,0.16,,2013-07-07 15:11:00,
2013-07-07 11:22:00,72.0,68.0,30.09,SSE,155,3.0,7.0,87,0.00,,,0.16,,2013-07-07 15:22:00,
2013-07-07 11:34:00,72.0,68.0,30.09,WSW,255,2.0,6.0,88,0.00,,,0.02,,2013-07-07 15:34:00,
2013-07-07 11:43:00,72.0,68.0,30.09,South,190,3.0,7.0,86,0.00,,,0.02,,2013-07-07 15:43:00,
2013-07-07 11:52:00,72.0,68.0,30.09,WSW,252,4.0,8.0,86,0.00,,,0.02,,2013-07-07 15:52:00,
2013-07-07 12:01:00,72.0,68.0,30.10,SW,225,1.0,5.0,86,0.00,,,0.02,,2013-07-07 16:01:00,
2013-07-07 12:11:00,73.0,68.0,30.09,SW,226,4.0,6.0,85,0.00,,,0.02,,2013-07-07 16:11:00,
2013-07-07 12:23:00,73.0,68.0,30.09,SSW,212,3.0,6.0,85,0.00,,,0.02,,2013-07-07 16:23:00,
2013-07-07 12:43:00,74.0,68.0,30.08,SSW,208,3.0,8.0,83,0.00,,,0.01,,2013-07-07 16:43:00,
2013-07-07 12:53:00,75.0,69.0,30.08,SSE,166,6.0,9.0,82,0.00,,,0.01,,2013-07-07 16:53:00,
2013-07-07 13:02:00,75.0,69.0,30.08,SSW,195,5.0,10.0,82,0.00,,,0.01,,2013-07-07 17:02:00,
2013-07-07 13:12:00,75.0,69.0,30.08,WSW,250,3.0,9.0,82,0.00,,,0.01,,2013-07-07 17:12:00,
2013-07-07 13:22:00,76.0,69.0,30.08,SW,225,4.0,9.0,80,0.00,,,0.01,,2013-07-07 17:22:00,
2013-07-07 13:34:00,76.0,69.0,30.08,SSW,203,2.0,7.0,80,0.00,,,0.01,,2013-07-07 17:34:00,
2013-07-07 13:43:00,76.0,69.0,30.08,SW,221,3.0,9.0,80,0.00,,,0.01,,2013-07-07 17:43:00,
2013-07-07 13:53:00,76.0,69.0,30.08,WSW,250,2.0,7.0,79,0.00,,,0.01,,2013-07-07 17:53:00,
2013-07-07 14:02:00,77.0,70.0,30.08,SW,226,3.0,8.0,78,0.00,,,0.01,,2013-07-07 18:02:00,
2013-07-07 14:11:00,77.0,70.0,30.07,SW,222,2.0,7.0,79,0.00,,,0.01,,2013-07-07 18:11:00,
2013-07-07 14:22:00,77.0,70.0,30.07,SSW,198,5.0,8.0,79,0.00,,,0.01,,2013-07-07 18:22:00,
2013-07-07 14:33:00,78.0,71.0,30.07,WSW,249,2.0,8.0,78,0.00,,,0.00,,2013-07-07 18:33:00,
2013-07-07 14:43:00,79.0,71.0,30.06,SE,146,3.0,9.0,77,0.00,,,0.00,,2013-07-07 18:43:00,
2013-07-07 14:53:00,79.0,71.0,30.06,South,181,4.0,7.0,76,0.00,,,0.00,,2013-07-07 18:53:00,
2013-07-07 15:01:00,79.0,71.0,30.06,SW,219,5.0,12.0,76,0.00,,,0.00,,2013-07-07 19:01:00,
2013-07-07 15:11:00,80.0,72.0,30.06,SSW,206,3.0,8.0,77,0.00,,,0.00,,2013-07-07 19:11:00,
2013-07-07 15:22:00,81.0,72.0,30.06,SSW,194,5.0,9.0,73,0.00,,,0.00,,2013-07-07 19:22:00,
2013-07-07 15:34:00,81.0,72.0,30.05,SSW,200,8.0,13.0,73,0.00,,,0.00,,2013-07-07 19:34:00,
2013-07-07 15:43:00,82.0,72.0,30.05,SW,222,5.0,9.0,73,0.00,,,0.00,,2013-07-07 19:43:00,
2013-07-07 15:54:00,82.0,71.0,30.05,SSW,212,3.0,10.0,70,0.00,,,0.00,,2013-07-07 19:54:00,
2013-07-07 16:02:00,82.0,71.0,30.04,WSW,245,5.0,9.0,70,0.00,,,0.00,,2013-07-07 20:02:00,
2013-07-07 16:11:00,82.0,71.0,30.05,WSW,238,5.0,11.0,69,0.00,,,0.00,,2013-07-07 20:11:00,
2013-07-07 16:22:00,83.0,72.0,30.05,SW,226,5.0,9.0,70,0.00,,,0.00,,2013-07-07 20:22:00,
2013-07-07 16:34:00,83.0,72.0,30.04,WNW,288,3.0,12.0,69,0.00,,,0.00,,2013-07-07 20:34:00,
2013-07-07 16:42:00,83.0,71.0,30.04,SW,228,4.0,8.0,68,0.00,,,0.00,,2013-07-07 20:42:00,
2013-07-07 16:53:00,83.0,70.0,30.04,SW,236,4.0,9.0,66,0.00,,,0.00,,2013-07-07 20:53:00,
2013-07-07 17:02:00,83.0,71.0,30.04,West,259,5.0,10.0,67,0.00,,,0.00,,2013-07-07 21:02:00,
2013-07-07 17:11:00,83.0,71.0,30.03,SSW,195,4.0,9.0,68,0.00,,,0.00,,2013-07-07 21:11:00,
2013-07-07 17:22:00,84.0,72.0,30.03,SW,232,4.0,9.0,68,0.00,,,0.00,,2013-07-07 21:22:00,
2013-07-07 17:33:00,83.0,71.0,30.03,SW,231,4.0,9.0,68,0.00,,,0.00,,2013-07-07 21:33:00,
2013-07-07 17:43:00,83.0,70.0,30.03,West,260,6.0,11.0,65,0.00,,,0.00,,2013-07-07 21:43:00,
2013-07-07 17:53:00,83.0,70.0,30.03,SW,226,4.0,11.0,65,0.00,,,0.00,,2013-07-07 21:53:00,
2013-07-07 18:01:00,83.0,70.0,30.02,WNW,283,5.0,9.0,65,0.00,,,0.00,,2013-07-07 22:01:00,
2013-07-07 18:11:00,83.0,71.0,30.02,SW,214,3.0,10.0,67,0.00,,,0.00,,2013-07-07 22:11:00,
2013-07-07 18:22:00,83.0,71.0,30.02,WSW,240,4.0,11.0,67,0.00,,,0.00,,2013-07-07 22:22:00,
2013-07-07 18:34:00,83.0,71.0,30.02,WNW,298,2.0,8.0,68,0.00,,,0.00,,2013-07-07 22:34:00,
2013-07-07 18:43:00,83.0,71.0,30.01,SSW,211,3.0,8.0,68,0.00,,,0.00,,2013-07-07 22:43:00,
2013-07-07 18:53:00,83.0,71.0,30.02,SSW,211,5.0,8.0,68,0.00,,,0.00,,2013-07-07 22:53:00,
2013-07-07 19:02:00,83.0,72.0,30.01,South,177,3.0,9.0,69,0.00,,,0.00,,2013-07-07 23:02:00,
2013-07-07 19:12:00,83.0,71.0,30.01,SW,219,7.0,9.0,68,0.00,,,0.00,,2013-07-07 23:12:00,
2013-07-07 19:22:00,83.0,71.0,30.01,SW,226,4.0,10.0,68,0.00,,,0.00,,2013-07-07 23:22:00,
2013-07-07 19:33:00,83.0,71.0,30.01,SSW,212,4.0,8.0,68,0.00,,,0.00,,2013-07-07 23:33:00,
2013-07-07 19:43:00,83.0,71.0,30.01,West,267,5.0,9.0,68,0.00,,,0.00,,2013-07-07 23:43:00,
2013-07-07 19:53:00,83.0,71.0,30.01,WSW,240,3.0,8.0,68,0.00,,,0.00,,2013-07-07 23:53:00,
2013-07-07 20:01:00,83.0,72.0,30.02,SW,236,3.0,7.0,69,0.00,,,0.00,,2013-07-08 00:01:00,
2013-07-07 20:12:00,83.0,72.0,30.02,SSW,197,3.0,6.0,69,0.00,,,0.00,,2013-07-08 00:12:00,
2013-07-07 20:22:00,82.0,71.0,30.03,SW,221,2.0,9.0,69,0.00,,,0.00,,2013-07-08 00:22:00,
2013-07-07 20:33:00,82.0,71.0,30.03,SW,232,2.0,7.0,69,0.00,,,0.00,,2013-07-08 00:33:00,
2013-07-07 20:43:00,81.0,70.0,30.03,SW,224,1.0,6.0,70,0.00,,,0.00,,2013-07-08 00:43:00,
2013-07-07 20:53:00,81.0,71.0,30.03,SW,214,2.0,4.0,71,0.00,,,0.00,,2013-07-08 00:53:00,
2013-07-07 21:01:00,80.0,70.0,30.03,SW,233,2.0,4.0,72,0.00,,,0.00,,2013-07-08 01:01:00,
2013-07-07 21:11:00,80.0,71.0,30.03,SSW,205,2.0,3.0,73,0.00,,,0.00,,2013-07-08 01:11:00,
2013-07-07 21:22:00,79.0,70.0,30.03,SW,233,2.0,4.0,74,0.00,,,0.00,,2013-07-08 01:22:00,
2013-07-07 21:32:00,79.0,70.0,30.03,South,173,2.0,4.0,75,0.00,,,0.00,,2013-07-08 01:32:00,
2013-07-07 21:43:00,78.0,70.0,30.04,SSW,197,1.0,4.0,76,0.00,,,0.00,,2013-07-08 01:43:00,
2013-07-07 21:52:00,78.0,70.0,30.04,SSE,166,0.0,3.0,77,0.00,,,0.00,,2013-07-08 01:52:00,
2013-07-07 22:02:00,77.0,70.0,30.04,SSW,198,1.0,2.0,78,0.00,,,0.00,,2013-07-08 02:02:00,
2013-07-07 22:11:00,77.0,70.0,30.04,South,179,1.0,2.0,79,0.00,,,0.00,,2013-07-08 02:11:00,
2013-07-07 22:22:00,76.0,69.0,30.04,SSE,167,1.0,3.0,80,0.00,,,0.00,,2013-07-08 02:22:00,
2013-07-07 22:33:00,76.0,70.0,30.05,SSW,210,1.0,3.0,81,0.00,,,0.00,,2013-07-08 02:33:00,
2013-07-07 22:42:00,76.0,70.0,30.05,SW,225,2.0,4.0,82,0.00,,,0.00,,2013-07-08 02:42:00,
2013-07-07 22:52:00,76.0,70.0,30.05,SSW,197,1.0,4.0,82,0.00,,,0.00,,2013-07-08 02:52:00,
2013-07-07 23:02:00,76.0,70.0,30.05,SSW,198,2.0,4.0,82,0.00,,,0.00,,2013-07-08 03:02:00,
2013-07-07 23:12:00,76.0,70.0,30.05,SSW,205,1.0,4.0,82,0.00,,,0.00,,2013-07-08 03:12:00,
2013-07-07 23:23:00,76.0,70.0,30.06,SW,226,2.0,3.0,82,0.00,,,0.00,,2013-07-08 03:23:00,
2013-07-07 23:34:00,75.0,69.0,30.06,South,190,1.0,4.0,82,0.00,,,0.00,,2013-07-08 03:34:00,
2013-07-07 23:42:00,75.0,69.0,30.05,SSW,205,2.0,4.0,82,0.00,,,0.00,,2013-07-08 03:42:00,
2013-07-07 23:52:00,75.0,69.0,30.05,SSW,200,1.0,5.0,82,0.00,,,0.00,,2013-07-08 03:52:00,